createdAt,value
2022-11-30T00:02:00.475Z,36.63
2022-11-30T00:07:02.122Z,37.35
2022-11-30T00:12:03.999Z,37.30
2022-11-30T00:17:05.686Z,36.50
2022-11-30T00:22:07.345Z,35.53
2022-11-30T00:27:08.890Z,35.60
2022-11-30T00:32:10.442Z,34.50
2022-11-30T00:37:12.017Z,35.33
2022-11-30T00:42:13.730Z,34.70
2022-11-30T00:47:15.268Z,35.65
2022-11-30T00:52:16.815Z,36.22
2022-11-30T00:57:18.414Z,34.80
2022-11-30T01:02:20.269Z,35.30
2022-11-30T01:07:21.907Z,37.15
2022-11-30T01:12:23.545Z,34.85
2022-11-30T01:17:25.119Z,34.92
2022-11-30T01:22:26.678Z,35.30
2022-11-30T01:27:28.411Z,35.28
2022-11-30T01:32:29.982Z,34.67
2022-11-30T01:37:31.581Z,34.38
2022-11-30T01:42:33.294Z,37.30
2022-11-30T01:47:39.360Z,35.85
2022-11-30T01:52:46.876Z,37.22
2022-11-30T01:57:52.506Z,36.42
2022-11-30T02:03:02.676Z,36.00
2022-11-30T02:08:06.066Z,37.63
2022-11-30T02:13:39.192Z,39.83
2022-11-30T02:18:55.698Z,40.55
2022-11-30T02:24:26.659Z,38.53
2022-11-30T02:29:34.720Z,38.38
2022-11-30T02:34:38.118Z,39.67
2022-11-30T02:39:39.686Z,40.00
2022-11-30T02:44:45.645Z,38.70
2022-11-30T02:50:04.609Z,39.50
2022-11-30T02:55:09.362Z,39.27
2022-11-30T03:00:12.722Z,37.45
2022-11-30T03:05:14.395Z,38.42
2022-11-30T03:10:15.969Z,35.25
2022-11-30T03:15:17.587Z,31.98
2022-11-30T03:20:19.156Z,38.90
2022-11-30T03:25:20.827Z,38.75
2022-11-30T03:30:22.479Z,39.90
2022-11-30T03:35:24.684Z,38.83
2022-11-30T03:40:26.225Z,39.30
2022-11-30T03:45:27.803Z,37.70
2022-11-30T03:50:29.389Z,36.72
2022-11-30T03:55:30.929Z,38.30
2022-11-30T04:00:32.471Z,35.75
2022-11-30T04:05:34.119Z,38.03
2022-11-30T04:10:36.016Z,37.47
2022-11-30T04:15:37.623Z,38.05
2022-11-30T04:20:40.734Z,36.80
2022-11-30T04:25:42.620Z,37.92
2022-11-30T04:30:45.939Z,37.17
2022-11-30T04:35:52.060Z,35.13
2022-11-30T04:40:54.389Z,36.22
2022-11-30T04:45:55.966Z,34.50
2022-11-30T04:51:08.559Z,36.22
2022-11-30T04:56:12.010Z,37.40
2022-11-30T05:01:13.612Z,35.45
2022-11-30T05:06:15.164Z,36.60
2022-11-30T05:11:16.731Z,36.47
2022-11-30T05:16:18.335Z,37.03
2022-11-30T05:21:19.919Z,33.95
2022-11-30T05:26:21.520Z,30.45
2022-11-30T05:31:23.139Z,35.25
2022-11-30T05:36:24.760Z,35.35
2022-11-30T05:41:26.430Z,35.53
2022-11-30T05:46:28.071Z,34.60
2022-11-30T05:51:29.763Z,33.97
2022-11-30T05:56:31.371Z,31.95
2022-11-30T06:01:32.993Z,30.95
2022-11-30T06:06:34.645Z,30.30
2022-11-30T06:11:36.311Z,32.17
2022-11-30T06:16:39.795Z,29.85
2022-11-30T06:21:41.536Z,31.38
2022-11-30T06:26:43.153Z,32.97
2022-11-30T06:31:44.746Z,29.88
2022-11-30T06:36:46.603Z,29.92
2022-11-30T06:41:53.074Z,33.28
2022-11-30T06:46:56.090Z,30.10
2022-11-30T06:51:57.737Z,32.67
2022-11-30T06:56:59.391Z,28.90
2022-11-30T07:02:07.485Z,31.50
2022-11-30T07:07:10.491Z,29.38
2022-11-30T07:12:12.197Z,31.70
2022-11-30T07:17:13.796Z,30.38
2022-11-30T07:22:15.416Z,31.10
2022-11-30T07:27:16.970Z,31.63
2022-11-30T07:32:19.358Z,29.73
2022-11-30T07:37:20.965Z,30.38
2022-11-30T07:42:23.008Z,29.88
2022-11-30T07:47:24.536Z,30.45
2022-11-30T07:52:26.103Z,30.20
2022-11-30T07:57:27.755Z,29.35
2022-11-30T08:02:29.369Z,29.60
2022-11-30T08:07:31.019Z,30.45
2022-11-30T08:12:32.661Z,29.35
2022-11-30T08:17:34.289Z,29.42
2022-11-30T08:22:36.274Z,31.45
2022-11-30T08:27:37.964Z,31.92
2022-11-30T08:32:39.545Z,29.85
2022-11-30T08:37:41.089Z,29.40
2022-11-30T08:42:42.647Z,27.30
2022-11-30T08:47:44.222Z,29.35
2022-11-30T08:52:45.777Z,29.30
2022-11-30T08:57:47.353Z,29.10
2022-11-30T09:02:48.950Z,28.40
2022-11-30T09:07:50.633Z,28.48
2022-11-30T09:12:52.218Z,27.23
2022-11-30T09:17:54.111Z,26.80
2022-11-30T09:22:55.668Z,28.20
2022-11-30T09:27:57.258Z,28.38
2022-11-30T09:33:00.520Z,30.20
2022-11-30T09:38:02.070Z,28.55
2022-11-30T09:43:22.048Z,29.77
2022-11-30T09:48:32.208Z,29.25
2022-11-30T09:53:51.594Z,25.92
2022-11-30T09:59:08.497Z,28.02
2022-11-30T10:04:23.848Z,27.48
2022-11-30T10:10:23.743Z,28.20
2022-11-30T10:15:35.544Z,28.13
2022-11-30T10:21:09.456Z,29.05
2022-11-30T10:26:24.923Z,26.33
2022-11-30T10:31:34.781Z,28.35
2022-11-30T10:36:46.363Z,26.85
2022-11-30T10:41:53.885Z,26.88
2022-11-30T10:47:03.087Z,25.65
2022-11-30T10:52:08.869Z,27.52
2022-11-30T10:57:10.538Z,26.20
2022-11-30T11:02:33.849Z,25.75
2022-11-30T11:07:56.395Z,27.70
2022-11-30T11:12:59.437Z,25.23
2022-11-30T11:18:26.891Z,25.35
2022-11-30T11:23:39.774Z,26.02
2022-11-30T11:28:45.568Z,26.08
2022-11-30T11:33:52.707Z,26.05
2022-11-30T11:38:54.758Z,22.75
2022-11-30T11:44:23.148Z,26.08
2022-11-30T11:49:28.582Z,25.33
2022-11-30T11:54:47.137Z,26.38
2022-11-30T12:00:16.334Z,25.87
2022-11-30T12:16:00.912Z,25.63
2022-11-30T12:21:11.696Z,24.20
2022-11-30T12:26:38.316Z,18.77
2022-11-30T12:32:00.110Z,22.83
2022-11-30T12:37:01.628Z,22.90
2022-11-30T12:42:18.840Z,22.15
2022-11-30T12:47:46.545Z,22.35
2022-11-30T12:53:07.428Z,22.70
2022-11-30T12:58:36.693Z,21.30
2022-11-30T13:03:48.029Z,20.35
2022-11-30T13:09:14.694Z,21.95
2022-11-30T13:14:22.398Z,21.13
2022-11-30T13:19:40.938Z,20.95
2022-11-30T13:24:49.905Z,19.20
2022-11-30T13:30:21.712Z,20.98
2022-11-30T13:35:29.253Z,19.50
2022-11-30T13:40:31.327Z,19.10
2022-11-30T13:45:34.737Z,18.55
2022-11-30T13:50:38.756Z,16.67
2022-11-30T13:55:42.968Z,20.15
2022-11-30T14:00:58.354Z,18.65
2022-11-30T14:06:01.784Z,17.52
2022-11-30T14:11:38.931Z,20.08
2022-11-30T14:16:42.165Z,20.40
2022-11-30T14:21:44.905Z,20.77
2022-11-30T14:26:50.295Z,20.67
2022-11-30T14:31:58.534Z,21.70
2022-11-30T14:37:03.641Z,23.42
2022-11-30T14:42:05.709Z,21.35
2022-11-30T14:47:20.564Z,23.75
2022-11-30T14:52:59.474Z,21.95
2022-11-30T14:58:32.372Z,21.92
2022-11-30T15:03:40.387Z,22.25
2022-11-30T15:08:49.975Z,23.10
2022-11-30T15:13:56.363Z,21.70
2022-11-30T15:18:59.648Z,23.40
2022-11-30T15:24:01.749Z,23.13
2022-11-30T15:29:06.478Z,23.52
2022-11-30T15:34:19.144Z,25.35
2022-11-30T15:39:23.683Z,22.38
2022-11-30T15:44:47.225Z,26.17
2022-11-30T15:49:54.782Z,25.10
2022-11-30T15:54:59.702Z,26.50
2022-11-30T16:00:16.432Z,26.17
2022-11-30T16:05:20.907Z,25.95
2022-11-30T16:10:40.816Z,25.38
2022-11-30T16:15:47.398Z,25.50
2022-11-30T16:20:52.040Z,23.65
2022-11-30T16:25:54.148Z,24.42
2022-11-30T16:31:00.386Z,25.23
2022-11-30T16:36:06.692Z,27.27
2022-11-30T16:41:22.934Z,30.05
2022-11-30T16:46:27.116Z,41.70
2022-11-30T16:51:31.522Z,25.42
2022-11-30T16:56:39.299Z,41.65
2022-11-30T17:01:47.338Z,32.13
2022-11-30T17:06:50.923Z,27.45
2022-11-30T17:11:53.109Z,25.40
2022-11-30T17:16:54.603Z,25.70
2022-11-30T17:21:56.145Z,27.75
2022-11-30T17:26:57.646Z,25.73
2022-11-30T17:31:59.064Z,26.02
2022-11-30T17:37:00.629Z,31.33
2022-11-30T17:42:02.169Z,27.52
2022-11-30T17:47:03.575Z,27.30
2022-11-30T17:52:04.976Z,27.48
2022-11-30T17:57:06.654Z,25.08
2022-11-30T18:02:11.279Z,24.85
2022-11-30T18:07:12.865Z,22.75
2022-11-30T18:12:14.306Z,21.25
2022-11-30T18:17:15.758Z,23.52
2022-11-30T18:22:17.298Z,22.48
2022-11-30T18:27:18.715Z,23.33
2022-11-30T18:32:20.156Z,24.08
2022-11-30T18:37:21.626Z,25.05
2022-11-30T18:42:23.062Z,25.10
2022-11-30T18:47:24.505Z,23.95
2022-11-30T18:52:25.935Z,22.60
2022-11-30T18:57:27.468Z,21.92
2022-11-30T19:02:29.006Z,25.42
2022-11-30T19:07:31.883Z,34.33
2022-11-30T19:12:34.971Z,26.60
2022-11-30T19:17:36.752Z,23.83
2022-11-30T19:22:39.084Z,24.13
2022-11-30T19:27:41.318Z,23.45
2022-11-30T19:32:43.485Z,23.40
2022-11-30T19:37:45.590Z,22.60
2022-11-30T19:42:47.705Z,23.45
2022-11-30T19:47:49.814Z,23.95
2022-11-30T19:52:52.097Z,22.80
2022-11-30T19:57:53.989Z,24.15
2022-11-30T20:02:56.187Z,23.92
2022-11-30T20:07:58.455Z,24.42
2022-11-30T20:12:59.973Z,22.58
2022-11-30T20:18:01.412Z,23.00
2022-11-30T20:23:03.506Z,22.05
2022-11-30T20:28:09.677Z,22.65
2022-11-30T20:33:13.854Z,22.27
2022-11-30T20:38:15.434Z,22.88
2022-11-30T20:43:16.863Z,21.95
2022-11-30T20:48:18.542Z,20.90
2022-11-30T20:53:20.109Z,20.98
2022-11-30T20:58:25.859Z,22.95
2022-11-30T21:03:28.076Z,19.50
2022-11-30T21:08:33.605Z,21.10
2022-11-30T21:13:35.153Z,22.25
2022-11-30T21:18:38.225Z,23.73
2022-11-30T21:23:39.821Z,23.98
2022-11-30T21:28:41.254Z,22.80
2022-11-30T21:33:48.455Z,19.63
2022-11-30T21:39:01.000Z,22.35
2022-11-30T21:44:07.822Z,22.63
2022-11-30T21:49:11.984Z,26.70
2022-11-30T21:54:15.421Z,25.90
2022-11-30T21:59:19.131Z,23.70
2022-11-30T22:04:20.653Z,24.13
2022-11-30T22:09:22.147Z,23.83
2022-11-30T22:14:24.293Z,23.10
2022-11-30T22:19:25.703Z,23.50
2022-11-30T22:24:27.122Z,22.23
2022-11-30T22:29:29.360Z,22.00
2022-11-30T22:34:32.231Z,22.63
2022-11-30T22:39:33.636Z,21.35
2022-11-30T22:44:35.072Z,22.42
2022-11-30T22:49:36.553Z,22.92
2022-11-30T22:54:38.097Z,20.80
2022-11-30T22:59:39.575Z,23.70
2022-11-30T23:04:41.005Z,23.23
2022-11-30T23:09:42.417Z,22.15
2022-11-30T23:14:43.840Z,21.30
2022-11-30T23:19:45.434Z,21.70
2022-11-30T23:24:47.074Z,21.08
2022-11-30T23:29:48.609Z,19.45
2022-11-30T23:34:50.941Z,20.92
2022-11-30T23:39:52.484Z,18.58
2022-11-30T23:45:01.063Z,20.52
2022-11-30T23:50:03.011Z,21.67
2022-11-30T23:55:04.855Z,21.92
